createdAt,value
2018-08-18T00:09:57.268Z,4.9
2018-08-18T00:29:57.130Z,3.7
2018-08-18T00:44:57.424Z,5.4
2018-08-18T01:00:10.893Z,4.1
2018-08-18T01:20:11.063Z,5
2018-08-18T01:35:10.942Z,4.6
2018-08-18T01:50:10.954Z,5.6
2018-08-18T02:10:10.964Z,6.3
2018-08-18T02:25:23.028Z,6.1
2018-08-18T02:40:23.500Z,6.6
2018-08-18T02:55:25.514Z,6.1
2018-08-18T03:15:38.584Z,5.8
2018-08-18T03:30:38.588Z,5.5
2018-08-18T03:45:38.946Z,5.2
2018-08-18T04:20:57.534Z,5.8
2018-08-18T04:50:57.280Z,5.9
2018-08-18T05:11:12.179Z,5.3
2018-08-18T05:41:12.226Z,6.2
2018-08-18T06:01:24.226Z,4.8
2018-08-18T06:16:24.091Z,4.3
2018-08-18T06:31:24.089Z,5.2
2018-08-18T06:46:35.375Z,5.5
2018-08-18T07:06:35.306Z,4.4
2018-08-18T07:36:46.582Z,4.8
2018-08-18T07:56:46.555Z,4
2018-08-18T08:11:57.101Z,3.2
2018-08-18T08:26:57.083Z,4.7
2018-08-18T08:46:56.894Z,4.6
2018-08-18T09:01:57.147Z,5
2018-08-18T09:17:09.177Z,3.7
2018-08-18T09:32:09.100Z,4.6
2018-08-18T09:52:09.512Z,3.8
2018-08-18T10:07:21.842Z,4.5
2018-08-18T10:22:21.793Z,4.3
2018-08-18T10:57:21.797Z,5.1
2018-08-18T11:12:32.780Z,4.5
2018-08-18T12:17:45.203Z,3.5
2018-08-18T12:52:45.482Z,3.2
2018-08-18T13:58:09.927Z,2.6
2018-08-18T14:13:09.913Z,3.4
2018-08-18T14:33:14.688Z,2.9
2018-08-18T15:03:26.825Z,3.2
2018-08-18T15:23:38.139Z,2.9
2018-08-18T15:38:37.917Z,3.2
2018-08-18T16:28:51.526Z,2.7
2018-08-18T16:43:59.171Z,2.7
2018-08-18T17:19:08.510Z,2.7
2018-08-18T17:34:08.530Z,2.8
2018-08-18T17:49:21.339Z,3.3
2018-08-18T18:24:33.767Z,3.4
2018-08-18T19:14:43.888Z,5.1
2018-08-18T19:29:43.871Z,7.7
2018-08-18T19:44:48.969Z,6
2018-08-18T20:04:57.625Z,6
2018-08-18T20:20:11.232Z,5.2
2018-08-18T20:35:11.348Z,4.5
2018-08-18T20:50:11.331Z,4.6
2018-08-18T21:10:26.183Z,5
2018-08-18T21:25:26.196Z,4.2
2018-08-18T21:40:26.224Z,4.1
2018-08-18T22:00:26.214Z,5
2018-08-18T22:15:37.007Z,3.6
2018-08-18T22:30:36.948Z,4.8
2018-08-18T22:45:36.865Z,4.4
2018-08-18T23:05:48.285Z,4.5
2018-08-18T23:20:48.304Z,4.8
2018-08-18T23:35:48.310Z,4.4
